Time;durP1;ratioP1;P1;durP2;ratioP2;P2;SDS_P1;SDS_P2;PMS_P1;PMS_P2;Temp;Humidity;BMP_temperature;BMP_pressure;BME280_temperature;BME280_humidity;BME280_pressure;Samples;Min_cycle;Max_cycle;Signal;HPM_P1;HPM_P2
2022/06/13 00:02:11;;;;;;;;;4.00;3.67;;;;;16.46;100.00;101851.19;5021230;28;45702;-81
2022/06/13 00:04:37;;;;;;;;;9.00;6.00;;;;;16.30;100.00;101827.59;5016455;28;46190;-81
2022/06/13 00:07:03;;;;;;;;;6.33;4.00;;;;;16.28;100.00;101841.66;4989530;28;45640;-79
2022/06/13 00:09:29;;;;;;;;;9.00;6.67;;;;;16.34;100.00;101862.94;5009853;28;46241;-78
2022/06/13 00:11:55;;;;;;;;;9.00;6.67;;;;;16.35;100.00;101864.66;5015720;28;45447;-78
2022/06/13 00:14:21;;;;;;;;;4.67;3.33;;;;;16.34;100.00;101867.63;5014990;28;45527;-78
2022/06/13 00:16:46;;;;;;;;;6.33;4.00;;;;;16.22;100.00;101851.69;4996651;28;45728;-77
2022/06/13 00:19:12;;;;;;;;;7.67;5.67;;;;;16.30;100.00;101861.69;5015516;28;45751;-76
2022/06/13 00:21:38;;;;;;;;;5.00;5.00;;;;;16.25;100.00;101847.66;5007083;28;45457;-81
2022/06/13 00:24:07;;;;;;;;;2.67;2.33;;;;;16.28;100.00;101858.28;5029863;28;45912;-78
2022/06/13 00:26:36;;;;;;;;;2.00;2.00;;;;;16.27;100.00;101861.28;5007594;28;45415;-81
2022/06/13 00:29:03;;;;;;;;;2.67;2.67;;;;;16.17;100.00;101847.91;5012108;28;45679;-80
2022/06/13 00:31:31;;;;;;;;;4.33;2.00;;;;;16.23;100.00;101855.34;5016110;28;45507;-81
2022/06/13 00:33:59;;;;;;;;;2.00;2.00;;;;;16.22;100.00;101864.69;5016319;28;45773;-81
2022/06/13 00:36:25;;;;;;;;;4.67;1.67;;;;;16.21;100.00;101860.22;5015769;28;45600;-80
2022/06/13 00:38:53;;;;;;;;;2.00;1.00;;;;;16.20;100.00;101853.00;5012894;28;45407;-81
2022/06/13 00:41:24;;;;;;;;;2.33;2.33;;;;;16.18;100.00;101855.13;5014792;28;45390;-80
2022/06/13 00:43:51;;;;;;;;;1.67;1.67;;;;;16.15;100.00;101856.44;5011725;28;45799;-80
2022/06/13 00:46:21;;;;;;;;;4.67;2.33;;;;;16.15;100.00;101859.19;5014918;28;45490;-81
2022/06/13 00:48:56;;;;;;;;;5.00;3.00;;;;;16.14;100.00;101854.72;5007670;28;47800;-82
2022/06/13 00:51:24;;;;;;;;;2.33;2.00;;;;;16.12;100.00;101845.78;5008678;28;45767;-82
2022/06/13 00:53:51;;;;;;;;;4.00;3.00;;;;;16.11;100.00;101844.09;5017657;28;45695;-83
2022/06/13 00:56:22;;;;;;;;;9.00;5.33;;;;;16.12;100.00;101842.16;5000593;28;46726;-81
2022/06/13 00:58:57;;;;;;;;;3.00;2.00;;;;;16.06;100.00;101830.91;5025291;28;46208;-80
2022/06/13 01:01:25;;;;;;;;;2.33;2.33;;;;;16.09;100.00;101829.59;4997720;28;45864;-81
2022/06/13 01:03:51;;;;;;;;;4.00;3.00;;;;;16.08;100.00;101840.91;5019721;28;45816;-81
2022/06/13 01:06:18;;;;;;;;;6.33;4.33;;;;;16.01;100.00;101827.09;5010914;28;45743;-80
2022/06/13 01:08:45;;;;;;;;;4.00;3.00;;;;;16.03;100.00;101834.13;5017668;28;45503;-81
2022/06/13 01:11:16;;;;;;;;;4.67;1.67;;;;;16.03;100.00;101847.09;5032486;28;45843;-81
2022/06/13 01:14:13;;;;;;;;;5.00;5.00;;;;;16.03;100.00;101836.91;5017315;28;45743;-81
2022/06/13 01:17:07;;;;;;;;;3.00;2.67;;;;;16.01;100.00;101830.72;5011070;28;45829;-80
2022/06/13 01:20:10;;;;;;;;;5.67;3.00;;;;;15.98;100.00;101831.16;5015200;28;45360;-81
2022/06/13 01:23:00;;;;;;;;;3.00;2.00;;;;;15.98;100.00;101828.38;4997051;28;45401;-81
2022/06/13 01:25:44;;;;;;;;;7.00;2.00;;;;;15.95;100.00;101828.81;5024877;28;46109;-80
2022/06/13 01:28:32;;;;;;;;;6.33;3.00;;;;;15.96;100.00;101827.75;4999486;28;45842;-80
2022/06/13 01:31:09;;;;;;;;;4.00;2.00;;;;;15.93;100.00;101830.97;5019847;28;47091;-77
2022/06/13 01:34:12;;;;;;;;;2.33;1.67;;;;;15.89;100.00;101824.16;5004752;28;45488;-81
2022/06/13 01:37:09;;;;;;;;;4.00;2.67;;;;;15.89;100.00;101826.94;5013702;28;45548;-78
2022/06/13 01:39:50;;;;;;;;;2.33;2.33;;;;;15.85;100.00;101826.53;5015420;28;46001;-76
2022/06/13 01:42:27;;;;;;;;;5.33;3.67;;;;;15.84;100.00;101832.28;5004260;28;45902;-75
2022/06/13 01:45:05;;;;;;;;;7.33;2.00;;;;;15.83;100.00;101830.56;4995468;28;45472;-77
2022/06/13 01:48:17;;;;;;;;;3.00;2.00;;;;;15.81;100.00;101829.94;4996231;28;45417;-77
2022/06/13 01:51:08;;;;;;;;;5.00;3.67;;;;;15.79;100.00;101830.13;5009287;28;45063;-75
2022/06/13 01:53:55;;;;;;;;;5.00;5.00;;;;;15.74;100.00;101831.84;5013204;28;47345;-78
2022/06/13 01:56:30;;;;;;;;;9.33;5.67;;;;;15.71;100.00;101833.13;4994594;28;45746;-77
2022/06/13 01:59:09;;;;;;;;;3.00;3.00;;;;;15.55;100.00;101806.78;5012313;28;45499;-81
2022/06/13 02:02:00;;;;;;;;;4.00;4.00;;;;;15.72;100.00;101837.59;5008687;28;45967;-77
2022/06/13 02:04:31;;;;;;;;;6.00;5.00;;;;;15.71;100.00;101833.97;5002627;28;46234;-76
2022/06/13 02:07:24;;;;;;;;;3.67;2.00;;;;;15.69;100.00;101836.09;4995841;28;45783;-76
2022/06/13 02:10:00;;;;;;;;;4.67;4.67;;;;;15.70;100.00;101843.34;5013793;28;45465;-77
2022/06/13 02:12:29;;;;;;;;;3.67;3.33;;;;;15.67;100.00;101846.53;5027147;28;45971;-76
2022/06/13 02:15:06;;;;;;;;;3.00;3.00;;;;;15.67;100.00;101843.78;4997256;28;48281;-81
2022/06/13 02:17:42;;;;;;;;;8.67;5.67;;;;;15.65;100.00;101834.00;5016221;28;45392;-81
2022/06/13 02:20:19;;;;;;;;;5.67;4.33;;;;;15.61;100.00;101833.56;5010605;28;45851;-82
2022/06/13 02:22:53;;;;;;;;;7.00;7.00;;;;;15.61;100.00;101828.03;4998177;28;45535;-82
2022/06/13 02:25:30;;;;;;;;;5.00;3.67;;;;;15.62;100.00;101829.72;5008516;28;46258;-80
2022/06/13 02:28:01;;;;;;;;;6.00;5.67;;;;;15.54;100.00;101830.81;5032269;28;45383;-82
2022/06/13 02:30:32;;;;;;;;;8.67;4.67;;;;;15.47;100.00;101815.31;4999726;28;45795;-82
2022/06/13 02:33:21;;;;;;;;;6.00;6.00;;;;;15.59;100.00;101827.41;5015275;28;45437;-76
2022/06/13 02:35:53;;;;;;;;;4.33;3.00;;;;;15.52;100.00;101835.72;5012968;28;45818;-77
2022/06/13 02:38:29;;;;;;;;;8.67;7.67;;;;;15.54;100.00;101839.13;5000903;28;45556;-78
2022/06/13 02:41:03;;;;;;;;;7.67;6.33;;;;;15.53;100.00;101842.09;5003990;28;45363;-76
2022/06/13 02:43:57;;;;;;;;;7.00;7.00;;;;;15.50;100.00;101835.06;5010096;28;45703;-76
2022/06/13 02:46:44;;;;;;;;;10.00;8.00;;;;;15.44;100.00;101829.56;4995002;28;46221;-76
2022/06/13 02:49:21;;;;;;;;;6.33;3.67;;;;;15.44;100.00;101833.16;5012978;28;45835;-77
2022/06/13 02:52:12;;;;;;;;;5.33;4.33;;;;;15.43;100.00;101836.16;4999526;28;45884;-77
2022/06/13 02:54:50;;;;;;;;;10.00;6.67;;;;;15.42;100.00;101837.19;4996774;28;46679;-77
2022/06/13 02:57:48;;;;;;;;;7.00;6.00;;;;;15.41;100.00;101832.75;5007657;28;45529;-78
2022/06/13 03:00:46;;;;;;;;;6.00;4.00;;;;;15.25;100.00;101811.94;5010562;28;45459;-78
2022/06/13 03:03:19;;;;;;;;;5.67;4.67;;;;;15.28;100.00;101828.09;5006942;28;45425;-77
2022/06/13 03:05:58;;;;;;;;;8.00;5.33;;;;;15.35;100.00;101851.03;5010962;28;45680;-77
2022/06/13 03:08:42;;;;;;;;;8.33;5.00;;;;;15.32;100.00;101841.25;4992726;28;46293;-77
2022/06/13 03:11:39;;;;;;;;;6.00;6.00;;;;;15.30;100.00;101851.69;5010620;28;45430;-77
2022/06/13 03:14:26;;;;;;;;;5.33;4.67;;;;;15.31;100.00;101849.75;5011894;28;45513;-82
2022/06/13 03:17:04;;;;;;;;;7.33;4.00;;;;;15.29;100.00;101855.50;4998939;28;46311;-84
2022/06/13 03:19:46;;;;;;;;;8.67;6.00;;;;;15.29;100.00;101858.28;5017117;28;45739;-82
2022/06/13 03:22:26;;;;;;;;;4.00;4.00;;;;;15.29;100.00;101855.50;4999463;28;45504;-80
2022/06/13 03:25:10;;;;;;;;;6.00;6.00;;;;;15.25;100.00;101859.75;5030767;28;45433;-83
2022/06/13 03:27:44;;;;;;;;;5.00;5.00;;;;;15.26;100.00;101861.47;4978202;28;45456;-83
2022/06/13 03:30:14;;;;;;;;;8.33;6.67;;;;;15.24;100.00;101866.34;5016564;28;46210;-83
2022/06/13 03:33:39;;;;;;;;;6.33;4.33;;;;;15.22;100.00;101857.41;5009724;28;45964;-82
2022/06/13 03:35:33;;;;;;;;;6.67;6.67;;;;;15.13;100.00;101853.16;5016184;28;45485;-82
2022/06/13 03:38:01;;;;;;;;;3.67;3.00;;;;;15.27;100.00;101874.22;4997999;28;45565;-81
2022/06/13 03:40:28;;;;;;;;;6.00;5.00;;;;;15.26;100.00;101882.72;4996296;28;47563;-79
2022/06/13 03:43:54;;;;;;;;;8.33;6.00;;;;;15.24;100.00;101882.06;5013703;28;45727;-82
2022/06/13 03:46:44;;;;;;;;;5.00;5.00;;;;;15.24;100.00;101887.59;4953612;28;46702;-83
2022/06/13 03:49:48;;;;;;;;;7.00;7.00;;;;;15.23;100.00;101886.75;4954092;28;46628;-84
2022/06/13 03:52:15;;;;;;;;;5.00;4.00;;;;;15.25;100.00;101881.03;5027105;28;45470;-81
2022/06/13 03:54:58;;;;;;;;;5.00;5.00;;;;;15.21;100.00;101874.22;5037522;28;45479;-82
2022/06/13 03:57:42;;;;;;;;;6.33;4.67;;;;;15.27;100.00;101877.00;5037432;28;45423;-80
2022/06/13 04:00:13;;;;;;;;;7.33;6.00;;;;;15.38;100.00;101881.03;5037136;28;45681;-82
2022/06/13 04:02:42;;;;;;;;;3.33;3.33;;;;;15.54;100.00;101880.59;5038149;28;45682;-82
2022/06/13 04:05:33;;;;;;;;;8.67;6.00;;;;;15.74;100.00;101876.09;5036717;28;46557;-82
2022/06/13 04:08:01;;;;;;;;;8.33;6.00;;;;;15.91;100.00;101871.81;5035572;28;45782;-82
2022/06/13 04:10:31;;;;;;;;;4.67;4.67;;;;;16.24;100.00;101881.94;5033726;28;46106;-82
2022/06/13 04:13:18;;;;;;;;;6.33;6.33;;;;;16.56;100.00;101880.09;5018785;28;47158;-81
2022/06/13 04:16:03;;;;;;;;;7.00;5.67;;;;;17.03;100.00;101879.81;5019696;28;45759;-80
2022/06/13 04:18:36;;;;;;;;;5.00;3.67;;;;;17.45;100.00;101866.28;5037335;28;45479;-82
2022/06/13 04:21:10;;;;;;;;;6.33;3.33;;;;;17.91;100.00;101857.72;5011565;28;45815;-82
2022/06/13 04:23:40;;;;;;;;;5.33;3.00;;;;;18.41;100.00;101865.00;5015184;28;46183;-82
2022/06/13 04:26:22;;;;;;;;;7.33;6.33;;;;;18.73;100.00;101836.97;5035096;28;45471;-81
2022/06/13 04:29:33;;;;;;;;;9.67;5.33;;;;;19.46;100.00;101849.75;5016221;28;45838;-82
2022/06/13 04:32:05;;;;;;;;;7.33;5.67;;;;;20.09;100.00;101862.03;5024187;28;45618;-85
2022/06/13 04:34:41;;;;;;;;;6.33;6.33;;;;;20.63;100.00;101849.75;5029975;28;47074;-83
2022/06/13 04:37:08;;;;;;;;;6.00;4.00;;;;;21.14;100.00;101850.69;5005290;28;45629;-82
2022/06/13 04:39:38;;;;;;;;;53.67;43.00;;;;;21.76;100.00;101865.63;5015769;28;45669;-81
2022/06/13 04:42:08;;;;;;;;;11.33;8.33;;;;;22.32;100.00;101854.41;5017625;28;45905;-81
2022/06/13 04:44:36;;;;;;;;;14.00;12.00;;;;;22.94;100.00;101854.22;5015330;28;45548;-82
2022/06/13 04:47:07;;;;;;;;;8.67;7.67;;;;;23.52;100.00;101857.22;5039686;28;45454;-82
2022/06/13 04:49:42;;;;;;;;;7.00;7.00;;;;;24.06;100.00;101857.03;5042306;28;45821;-81
2022/06/13 04:52:16;;;;;;;;;9.00;8.00;;;;;24.58;100.00;101860.00;5037396;28;45807;-82
2022/06/13 04:54:53;;;;;;;;;8.33;5.00;;;;;25.01;100.00;101841.03;5039479;28;46644;-81
2022/06/13 04:57:19;;;;;;;;;4.33;4.33;;;;;25.70;100.00;101861.22;5054798;28;45467;-83
2022/06/13 04:59:46;;;;;;;;;4.67;4.00;;;;;26.34;96.01;101865.25;5036758;28;45534;-80
2022/06/13 05:02:18;;;;;;;;;5.00;5.00;;;;;26.95;91.25;101866.88;5023412;28;45836;-88
2022/06/13 05:04:51;;;;;;;;;5.33;4.33;;;;;27.43;88.06;101866.22;5044538;28;46240;-89
2022/06/13 05:07:21;;;;;;;;;5.67;4.33;;;;;27.90;85.11;101866.59;5034716;28;45722;-86
2022/06/13 05:09:55;;;;;;;;;6.00;4.00;;;;;28.32;82.95;101869.78;5044618;28;45510;-88
2022/06/13 05:12:29;;;;;;;;;4.00;3.67;;;;;28.81;79.71;101870.53;5032184;28;46121;-88
2022/06/13 05:15:10;;;;;;;;;5.00;5.00;;;;;29.40;78.01;101874.69;5044617;28;45895;-85
2022/06/13 05:18:10;;;;;;;;;3.00;3.00;;;;;30.20;74.54;101870.91;5042080;28;45238;-85
2022/06/13 05:21:17;;;;;;;;;7.00;4.67;;;;;31.08;71.31;101872.59;5021769;28;45654;-85
2022/06/13 05:30:06;;;;;;;;;3.00;1.33;;;;;33.32;58.55;101868.34;5002429;28;45662;-85
2022/06/13 05:33:01;;;;;;;;;5.00;2.33;;;;;33.94;58.60;101883.25;5014254;28;45452;-83
2022/06/13 05:35:43;;;;;;;;;3.00;3.00;;;;;34.71;52.79;101885.16;5021721;28;45954;-80
2022/06/13 05:38:43;;;;;;;;;1.67;1.33;;;;;35.28;50.05;101886.56;5018228;28;46731;-83
2022/06/13 05:45:08;;;;;;;;;2.67;2.67;;;;;36.35;42.68;101838.06;4967183;28;45665;-79
2022/06/13 05:47:44;;;;;;;;;5.67;3.33;;;;;36.95;41.35;101874.59;5032031;28;45975;-80
2022/06/13 05:51:15;;;;;;;;;4.00;4.00;;;;;37.66;40.56;101879.84;5014354;28;48347;-84
2022/06/13 05:54:53;;;;;;;;;6.50;4.00;;;;;38.07;38.47;101892.81;4935836;28;45543;-84
2022/06/13 05:58:10;;;;;;;;;3.00;3.00;;;;;38.65;37.57;101889.28;4911134;28;45616;-85
2022/06/13 06:00:46;;;;;;;;;3.33;3.33;;;;;39.01;34.60;101849.88;4922864;28;46015;-84
2022/06/13 06:03:42;;;;;;;;;3.50;2.50;;;;;39.88;33.62;101889.72;5015734;28;46354;-85
2022/06/13 06:06:38;;;;;;;;;3.25;3.25;;;;;40.32;31.59;101893.28;5018133;28;45551;-85
2022/06/13 06:14:00;;;;;;;;;;;;;;;;;;;;;
2022/06/13 06:17:10;;;;;;;;;5.50;4.25;;;;;41.75;28.53;101891.44;4780968;29;75142;-82
2022/06/13 06:19:39;;;;;;;;;4.33;4.33;;;;;42.11;27.51;101893.78;4737740;29;45537;-83
2022/06/13 06:22:33;;;;;;;;;5.33;4.67;;;;;42.23;26.80;101896.38;4770174;29;46482;-84
2022/06/13 06:25:09;;;;;;;;;5.33;3.33;;;;;42.52;27.08;101893.69;4880713;28;44952;-87
2022/06/13 06:27:50;;;;;;;;;4.00;3.25;;;;;42.66;26.14;101892.97;4903304;28;47109;-84
2022/06/13 06:30:52;;;;;;;;;;;;;;;;;;;;;
2022/06/13 06:40:19;;;;;;;;;5.00;4.00;;;;;43.92;23.30;101899.09;4899408;28;44992;-86
2022/06/13 06:43:20;;;;;;;;;3.00;3.00;;;;;44.03;23.77;101887.53;4940280;28;45552;-88
2022/06/13 06:46:54;;;;;;;;;7.67;5.67;;;;;44.31;23.46;101915.63;4943733;28;45961;-86
2022/06/13 06:49:51;;;;;;;;;3.67;3.67;;;;;45.04;22.43;101917.09;5008682;28;45675;-86
2022/06/13 07:02:27;;;;;;;;;;;;;;;;;;;;;
2022/06/13 07:08:58;;;;;;;;;3.00;2.00;;;;;47.13;19.26;101897.81;4964518;28;45505;-85
2022/06/13 07:12:05;;;;;;;;;6.33;4.00;;;;;47.61;19.01;101919.13;4969044;28;45188;-87
2022/06/13 07:15:30;;;;;;;;;;;;;;;;;;;;;
2022/06/13 07:18:55;;;;;;;;;;;;;;;;;;;;;
2022/06/13 07:24:57;;;;;;;;;;;;;;;;;;;;;
2022/06/13 07:34:32;;;;;;;;;2.33;1.00;;;;;50.21;16.32;101923.19;4983602;28;44880;-86
2022/06/13 07:40:36;;;;;;;;;3.67;3.00;;;;;49.55;16.35;101899.91;4978785;28;44847;-86
2022/06/13 07:43:05;;;;;;;;;3.67;2.00;;;;;49.61;15.81;101903.91;5021014;28;45411;-86
2022/06/13 07:45:39;;;;;;;;;1.67;1.67;;;;;49.87;15.31;101863.22;5031645;28;45501;-87
2022/06/13 07:48:10;;;;;;;;;5.00;3.00;;;;;50.21;14.35;101928.22;5028150;28;45777;-87
2022/06/13 07:50:43;;;;;;;;;4.00;3.00;;;;;50.08;14.62;101916.47;5020705;28;45742;-85
2022/06/13 07:53:21;;;;;;;;;1.67;1.67;;;;;49.89;14.86;101907.41;5003015;28;45999;-87
2022/06/13 08:03:56;;;;;;;;;2.67;2.00;;;;;48.72;14.75;101912.53;4945139;28;44792;-86
2022/06/13 08:06:28;;;;;;;;;1.67;1.00;;;;;48.62;15.22;101928.19;4961539;23;45786;-73
2022/06/13 08:08:54;;;;;;;;;1.00;1.00;;;;;48.83;15.06;101929.84;5034282;28;45432;-72
2022/06/13 08:11:39;;;;;;;;;1.33;1.33;;;;;49.00;14.97;101921.97;5053186;28;45750;-72
2022/06/13 08:14:06;;;;;;;;;3.33;2.33;;;;;48.89;14.82;101920.13;5049843;28;46748;-73
2022/06/13 08:16:34;;;;;;;;;2.67;1.67;;;;;49.04;13.26;101925.63;5053178;28;46683;-72
2022/06/13 08:19:01;;;;;;;;;1.67;1.67;;;;;48.87;14.04;101922.66;5048859;28;45331;-71
2022/06/13 08:21:27;;;;;;;;;3.67;1.00;;;;;48.51;13.76;101922.56;5057437;28;45723;-72
2022/06/13 08:23:53;;;;;;;;;1.00;0.00;;;;;48.24;14.01;101915.56;5056893;28;45842;-72
2022/06/13 08:26:19;;;;;;;;;3.33;2.33;;;;;48.19;14.36;101926.88;5046213;28;45445;-72
2022/06/13 08:28:44;;;;;;;;;2.33;1.00;;;;;48.17;14.28;101918.59;5058820;28;45431;-73
2022/06/13 08:31:17;;;;;;;;;2.33;0.67;;;;;48.21;14.03;101921.44;5058306;28;45651;-73
2022/06/13 08:33:43;;;;;;;;;1.00;1.00;;;;;48.05;14.21;101910.50;5039244;28;46164;-72
2022/06/13 08:36:11;;;;;;;;;2.00;1.00;;;;;48.08;14.78;101927.09;5057054;28;46473;-70
2022/06/13 08:38:36;;;;;;;;;2.00;2.00;;;;;48.59;14.77;101927.78;5054252;28;45913;-73
2022/06/13 08:41:11;;;;;;;;;1.00;1.00;;;;;49.25;13.95;101922.25;5038543;28;45451;-73
2022/06/13 08:44:07;;;;;;;;;3.67;1.67;;;;;49.54;13.85;101927.41;5057055;28;45393;-75
2022/06/13 08:46:35;;;;;;;;;1.00;1.00;;;;;50.04;12.90;101918.66;5052842;28;46039;-72
2022/06/13 08:49:19;;;;;;;;;2.67;2.00;;;;;50.41;13.27;101913.50;5048673;28;45412;-72
2022/06/13 08:52:08;;;;;;;;;3.00;2.00;;;;;51.07;13.25;101924.94;5052700;28;45390;-71
2022/06/13 08:54:34;;;;;;;;;3.67;2.00;;;;;51.66;12.42;101917.63;5024189;28;45769;-71
2022/06/13 08:57:09;;;;;;;;;1.33;1.00;;;;;52.19;12.48;101922.06;5045911;28;45400;-71
2022/06/13 08:59:44;;;;;;;;;1.33;1.00;;;;;52.41;11.95;101922.94;5051335;28;46292;-73
2022/06/13 09:02:20;;;;;;;;;2.00;2.00;;;;;52.55;12.42;101921.59;5054538;28;45847;-72
2022/06/13 09:04:55;;;;;;;;;2.00;2.00;;;;;53.04;11.57;101926.00;5046561;28;45475;-73
2022/06/13 09:07:34;;;;;;;;;2.00;2.00;;;;;53.41;11.61;101922.47;5051654;28;45718;-72
2022/06/13 09:10:16;;;;;;;;;4.33;2.33;;;;;54.12;11.14;101923.63;5037476;28;45386;-73
2022/06/13 09:13:08;;;;;;;;;1.00;1.00;;;;;54.26;11.38;101922.16;5052559;28;45790;-72
2022/06/13 09:15:43;;;;;;;;;3.67;3.00;;;;;54.41;11.06;101919.38;5035702;28;45842;-72
2022/06/13 09:18:22;;;;;;;;;2.00;2.00;;;;;54.72;10.53;101919.22;5036370;28;46801;-73
2022/06/13 09:21:29;;;;;;;;;4.00;2.00;;;;;55.44;10.93;101915.69;5053893;28;45609;-72
2022/06/13 09:23:57;;;;;;;;;4.00;1.00;;;;;55.93;9.90;101918.69;5003269;28;45449;-71
2022/06/13 09:26:38;;;;;;;;;3.00;2.00;;;;;56.23;9.87;101923.34;5005385;28;45647;-73
2022/06/13 09:29:14;;;;;;;;;2.33;1.00;;;;;55.81;10.28;101932.34;5037689;28;46811;-72
2022/06/13 09:31:45;;;;;;;;;3.00;2.00;;;;;55.46;10.06;101915.19;5046516;28;45892;-72
2022/06/13 09:34:22;;;;;;;;;1.67;1.00;;;;;55.58;9.91;101923.00;5053657;28;45530;-72
2022/06/13 09:37:02;;;;;;;;;1.67;0.33;;;;;55.83;9.43;101917.94;5052604;28;45532;-71
2022/06/13 09:39:27;;;;;;;;;2.00;1.00;;;;;55.75;9.99;101920.47;5049751;28;46421;-71
2022/06/13 09:41:59;;;;;;;;;3.00;1.00;;;;;55.86;10.07;101908.09;5054323;28;45453;-73
2022/06/13 09:44:40;;;;;;;;;2.00;1.00;;;;;56.02;9.63;101922.41;5047236;28;45366;-72
2022/06/13 09:47:25;;;;;;;;;1.67;1.67;;;;;56.20;9.38;101923.56;5051548;28;45745;-72
2022/06/13 09:50:08;;;;;;;;;1.00;1.00;;;;;55.96;9.17;101921.47;5041773;28;46327;-73
2022/06/13 09:52:56;;;;;;;;;1.00;1.00;;;;;55.84;9.23;101926.28;5047306;28;45382;-73
2022/06/13 09:56:00;;;;;;;;;1.00;1.00;;;;;56.04;9.56;101916.84;5033031;28;45653;-74
2022/06/13 09:58:44;;;;;;;;;1.00;1.00;;;;;55.62;9.28;101926.56;5043360;28;45928;-72
2022/06/13 10:01:21;;;;;;;;;1.33;0.33;;;;;54.84;9.26;101921.16;5050950;28;47143;-73
2022/06/13 10:04:10;;;;;;;;;1.00;1.00;;;;;54.39;9.54;101922.00;5031844;28;45946;-72
2022/06/13 10:06:56;;;;;;;;;1.00;1.00;;;;;53.88;10.22;101914.59;5050216;28;45674;-74
2022/06/13 10:09:26;;;;;;;;;3.33;2.33;;;;;52.95;10.13;101914.22;5047505;28;45456;-72
2022/06/13 10:12:30;;;;;;;;;2.67;1.00;;;;;52.18;10.56;101911.66;5046663;28;48511;-74
2022/06/13 10:15:01;;;;;;;;;1.00;1.00;;;;;51.52;10.82;101915.16;5046087;28;45283;-74
2022/06/13 10:17:49;;;;;;;;;1.00;1.00;;;;;50.94;11.34;101905.28;5029905;28;45568;-76
2022/06/13 10:20:26;;;;;;;;;1.67;1.33;;;;;50.32;11.35;101906.25;5050284;28;45469;-73
2022/06/13 10:23:18;;;;;;;;;3.33;3.33;;;;;49.40;12.07;101916.09;5055737;28;45769;-74
2022/06/13 10:26:10;;;;;;;;;1.00;1.00;;;;;48.04;13.02;101903.03;5054616;28;45445;-73
2022/06/13 10:28:35;;;;;;;;;2.00;1.00;;;;;47.74;13.43;101914.34;5051011;28;45793;-74
2022/06/13 10:31:40;;;;;;;;;2.00;1.00;;;;;48.32;12.93;101903.78;5052034;28;45566;-74
2022/06/13 10:34:17;;;;;;;;;3.00;1.33;;;;;48.90;12.88;101907.19;5052254;28;45666;-75
2022/06/13 10:37:06;;;;;;;;;1.67;1.67;;;;;49.44;12.46;101905.97;5048248;28;45797;-75
2022/06/13 10:39:32;;;;;;;;;3.67;1.67;;;;;50.00;12.12;101905.00;5031556;28;46379;-74
2022/06/13 10:42:07;;;;;;;;;3.00;2.00;;;;;50.55;12.06;101901.41;5046512;28;45515;-73
2022/06/13 10:44:33;;;;;;;;;2.33;2.00;;;;;50.78;12.22;101897.41;5049578;28;45718;-71
2022/06/13 10:47:08;;;;;;;;;1.00;1.00;;;;;50.83;11.71;101888.09;5046099;28;45548;-73
2022/06/13 10:49:45;;;;;;;;;1.67;1.00;;;;;50.83;11.57;101893.94;5045222;28;44989;-73
2022/06/13 10:52:23;;;;;;;;;1.00;1.00;;;;;51.04;11.47;101885.78;5027754;28;45707;-75
2022/06/13 10:54:56;;;;;;;;;2.00;1.00;;;;;51.01;11.84;101899.25;5050940;28;45701;-72
2022/06/13 10:57:28;;;;;;;;;1.00;1.00;;;;;50.92;11.81;101899.09;5055158;28;45346;-75
2022/06/13 11:00:20;;;;;;;;;1.00;1.00;;;;;50.07;11.77;101894.44;5051766;28;45532;-75
2022/06/13 11:02:47;;;;;;;;;1.33;1.33;;;;;49.30;12.01;101878.00;5053115;28;45756;-72
2022/06/13 11:05:15;;;;;;;;;2.67;2.67;;;;;48.38;12.49;101876.63;5048319;28;46686;-74
2022/06/13 11:07:55;;;;;;;;;1.00;1.00;;;;;47.52;13.08;101878.97;5049573;28;45508;-72
2022/06/13 11:10:39;;;;;;;;;1.00;1.00;;;;;46.74;13.73;101878.81;5038430;28;45426;-73
2022/06/13 11:13:13;;;;;;;;;3.00;1.00;;;;;45.25;14.41;101880.56;5032975;28;45969;-73
2022/06/13 11:24:33;;;;;;;;;3.33;2.33;;;;;40.59;17.77;101882.66;5041103;28;45768;-72
2022/06/13 11:29:43;;;;;;;;;2.33;1.67;;;;;38.28;18.40;101894.53;5053349;28;45414;-74
2022/06/13 11:32:28;;;;;;;;;4.00;2.00;;;;;36.96;19.82;101893.41;5046596;28;45394;-74
2022/06/13 11:34:53;;;;;;;;;3.00;3.00;;;;;36.14;21.41;101888.72;5052927;28;45480;-75
2022/06/13 11:37:23;;;;;;;;;2.00;2.00;;;;;35.52;22.29;101885.78;5052965;28;45444;-73
2022/06/13 11:39:51;;;;;;;;;3.00;1.67;;;;;35.02;23.99;101887.63;5041719;28;45443;-73
2022/06/13 11:42:27;;;;;;;;;4.00;3.00;;;;;34.37;23.70;101882.19;5028761;28;45433;-73
2022/06/13 11:45:05;;;;;;;;;4.00;2.33;;;;;33.38;24.48;101895.44;5029263;28;46262;-75
2022/06/13 11:47:47;;;;;;;;;5.00;1.00;;;;;32.24;25.50;101890.81;5051413;28;46962;-75
2022/06/13 11:50:19;;;;;;;;;3.00;2.00;;;;;31.51;28.12;101887.09;5036069;28;45426;-74
2022/06/13 11:55:32;;;;;;;;;3.67;2.00;;;;;30.33;33.07;101891.84;5044881;28;45350;-75
2022/06/13 11:58:03;;;;;;;;;1.00;1.00;;;;;29.89;32.98;101886.50;5048647;28;46113;-74
2022/06/13 12:00:49;;;;;;;;;1.33;1.33;;;;;29.53;33.81;101875.84;5052777;28;45861;-73
2022/06/13 12:03:19;;;;;;;;;1.00;0.00;;;;;29.31;35.60;101876.53;5059041;28;45668;-72
2022/06/13 12:05:50;;;;;;;;;3.33;2.00;;;;;29.06;38.53;101874.94;5047015;28;45761;-74
2022/06/13 12:08:16;;;;;;;;;2.33;2.33;;;;;28.70;38.78;101875.50;5054532;28;45739;-75
2022/06/13 12:11:13;;;;;;;;;4.00;2.00;;;;;28.26;39.85;101876.63;5057877;28;45330;-74
2022/06/13 12:13:43;;;;;;;;;2.00;2.00;;;;;27.93;42.92;101871.63;5059323;28;45952;-74
2022/06/13 12:16:39;;;;;;;;;2.33;2.33;;;;;27.66;45.07;101866.56;5058834;28;46053;-74
2022/06/13 12:19:18;;;;;;;;;1.33;1.33;;;;;27.46;43.96;101859.16;5058949;28;45381;-73
2022/06/13 12:21:47;;;;;;;;;2.00;2.00;;;;;27.23;44.98;101861.59;5058603;28;45842;-73
2022/06/13 12:24:35;;;;;;;;;3.00;2.00;;;;;27.10;48.24;101859.47;5055157;28;45446;-73
2022/06/13 12:27:07;;;;;;;;;2.00;2.00;;;;;26.90;48.91;101855.66;5035936;28;45371;-72
2022/06/13 12:30:02;;;;;;;;;3.00;1.00;;;;;26.78;49.41;101860.81;5059111;28;45484;-73
2022/06/13 12:32:38;;;;;;;;;1.33;1.00;;;;;26.47;50.89;101866.59;5035072;28;46210;-72
2022/06/13 12:35:29;;;;;;;;;3.00;3.00;;;;;26.15;51.25;101864.22;5055359;28;45407;-74
2022/06/13 12:38:19;;;;;;;;;2.00;1.67;;;;;25.81;54.50;101851.66;5047714;28;45480;-75
2022/06/13 12:40:57;;;;;;;;;3.00;2.33;;;;;25.68;55.64;101855.06;5050828;28;45790;-74
2022/06/13 12:43:35;;;;;;;;;3.33;2.67;;;;;25.51;54.70;101850.59;5054284;28;45414;-73
2022/06/13 12:46:36;;;;;;;;;3.00;3.00;;;;;25.37;56.07;101855.09;5036693;28;45885;-74
2022/06/13 12:49:14;;;;;;;;;2.00;2.00;;;;;25.22;56.31;101857.88;5057881;28;45771;-73
2022/06/13 12:51:52;;;;;;;;;1.33;1.00;;;;;25.08;57.13;101852.81;5045014;28;45704;-72
2022/06/13 12:54:46;;;;;;;;;3.00;3.00;;;;;24.98;58.79;101855.63;5059436;28;45505;-73
2022/06/13 12:57:35;;;;;;;;;4.67;2.00;;;;;24.79;59.17;101844.94;5059855;28;45838;-73
2022/06/13 13:00:20;;;;;;;;;4.00;1.33;;;;;24.75;61.15;101845.78;5041843;28;45756;-73
2022/06/13 13:03:20;;;;;;;;;5.33;2.00;;;;;24.67;61.72;101848.03;5045968;28;46170;-72
2022/06/13 13:06:09;;;;;;;;;3.67;3.67;;;;;24.55;61.92;101852.16;5055006;28;45719;-72
2022/06/13 13:09:05;;;;;;;;;3.33;2.00;;;;;24.55;60.69;101849.34;5017922;28;45402;-74
2022/06/13 13:12:01;;;;;;;;;3.00;3.00;;;;;24.58;62.00;101843.19;5048762;28;45471;-73
2022/06/13 13:14:37;;;;;;;;;5.33;4.00;;;;;24.57;61.03;101835.91;5052226;28;45599;-74
2022/06/13 13:17:09;;;;;;;;;3.00;3.00;;;;;24.56;61.98;101837.84;5054860;28;45740;-74
2022/06/13 13:20:08;;;;;;;;;2.00;2.00;;;;;24.58;61.02;101844.06;5032655;28;45415;-73
2022/06/13 13:22:50;;;;;;;;;5.33;2.00;;;;;24.66;62.10;101835.09;5050672;28;45580;-73
2022/06/13 13:25:49;;;;;;;;;2.67;2.67;;;;;24.60;63.22;101832.56;5051997;28;45413;-72
2022/06/13 13:28:28;;;;;;;;;3.67;2.33;;;;;24.62;62.01;101835.94;5055012;28;45508;-75
2022/06/13 13:30:58;;;;;;;;;2.00;2.00;;;;;24.65;62.73;101829.78;5037052;28;45380;-73
2022/06/13 13:33:46;;;;;;;;;2.00;2.00;;;;;24.67;61.55;101825.56;5049226;28;45445;-74
2022/06/13 13:36:41;;;;;;;;;2.33;2.33;;;;;24.69;62.19;101828.09;5048851;28;45641;-74
2022/06/13 13:39:38;;;;;;;;;0.00;0.00;;;;;24.67;62.35;101824.72;5045905;28;45866;-73
2022/06/13 13:42:13;;;;;;;;;2.33;2.33;;;;;24.56;62.03;101803.34;5034712;28;45443;-74